sensor_id;sensor_type;location;lat;lon;timestamp;temperature;humidity
573;DHT22;271;51.114;13.780;2023-04-25T00:00:08;8.50;1.00
573;DHT22;271;51.114;13.780;2023-04-25T00:02:56;8.40;1.00
573;DHT22;271;51.114;13.780;2023-04-25T00:05:45;8.40;1.00
573;DHT22;271;51.114;13.780;2023-04-25T00:08:34;8.40;1.00
573;DHT22;271;51.114;13.780;2023-04-25T00:11:22;8.50;1.00
573;DHT22;271;51.114;13.780;2023-04-25T00:14:09;8.60;1.00
573;DHT22;271;51.114;13.780;2023-04-25T00:16:57;8.70;1.00
573;DHT22;271;51.114;13.780;2023-04-25T00:19:45;8.80;1.00
573;DHT22;271;51.114;13.780;2023-04-25T00:22:33;8.80;1.00
573;DHT22;271;51.114;13.780;2023-04-25T00:25:25;8.70;1.00
573;DHT22;271;51.114;13.780;2023-04-25T00:28:13;8.80;1.00
573;DHT22;271;51.114;13.780;2023-04-25T00:31:01;8.80;1.00
573;DHT22;271;51.114;13.780;2023-04-25T00:33:48;8.80;1.00
573;DHT22;271;51.114;13.780;2023-04-25T00:36:36;8.80;1.00
573;DHT22;271;51.114;13.780;2023-04-25T00:39:24;8.70;1.00
573;DHT22;271;51.114;13.780;2023-04-25T00:42:13;8.70;1.00
573;DHT22;271;51.114;13.780;2023-04-25T00:45:01;8.60;1.00
573;DHT22;271;51.114;13.780;2023-04-25T00:47:51;8.60;1.00
573;DHT22;271;51.114;13.780;2023-04-25T00:50:38;8.50;1.00
573;DHT22;271;51.114;13.780;2023-04-25T00:53:27;8.50;1.00
573;DHT22;271;51.114;13.780;2023-04-25T00:56:16;8.40;1.00
573;DHT22;271;51.114;13.780;2023-04-25T00:59:05;8.40;1.00
573;DHT22;271;51.114;13.780;2023-04-25T01:01:53;8.30;1.00
573;DHT22;271;51.114;13.780;2023-04-25T01:04:41;8.40;1.00
573;DHT22;271;51.114;13.780;2023-04-25T01:07:29;8.40;1.00
573;DHT22;271;51.114;13.780;2023-04-25T01:10:16;8.30;1.00
573;DHT22;271;51.114;13.780;2023-04-25T01:13:05;8.20;1.00
573;DHT22;271;51.114;13.780;2023-04-25T01:15:54;8.10;1.00
573;DHT22;271;51.114;13.780;2023-04-25T01:18:42;8.10;1.00
573;DHT22;271;51.114;13.780;2023-04-25T01:21:32;8.00;1.00
573;DHT22;271;51.114;13.780;2023-04-25T01:24:20;8.00;1.00
573;DHT22;271;51.114;13.780;2023-04-25T01:27:08;7.90;1.00
573;DHT22;271;51.114;13.780;2023-04-25T01:29:56;7.80;1.00
573;DHT22;271;51.114;13.780;2023-04-25T01:32:44;7.90;1.00
573;DHT22;271;51.114;13.780;2023-04-25T01:35:33;7.90;1.00
573;DHT22;271;51.114;13.780;2023-04-25T01:38:22;7.90;1.00
573;DHT22;271;51.114;13.780;2023-04-25T01:41:10;7.90;1.00
573;DHT22;271;51.114;13.780;2023-04-25T01:43:57;7.80;1.00
573;DHT22;271;51.114;13.780;2023-04-25T01:46:45;7.80;1.00
573;DHT22;271;51.114;13.780;2023-04-25T01:49:33;7.80;1.00
573;DHT22;271;51.114;13.780;2023-04-25T01:52:21;7.90;1.00
573;DHT22;271;51.114;13.780;2023-04-25T01:55:10;7.90;1.00
573;DHT22;271;51.114;13.780;2023-04-25T01:57:58;7.90;1.00
573;DHT22;271;51.114;13.780;2023-04-25T02:00:46;8.00;1.00
573;DHT22;271;51.114;13.780;2023-04-25T02:03:34;8.00;1.00
573;DHT22;271;51.114;13.780;2023-04-25T02:06:22;7.90;1.00
573;DHT22;271;51.114;13.780;2023-04-25T02:09:10;8.00;1.00
573;DHT22;271;51.114;13.780;2023-04-25T02:11:59;7.90;1.00
573;DHT22;271;51.114;13.780;2023-04-25T02:14:46;7.90;1.00
573;DHT22;271;51.114;13.780;2023-04-25T02:17:34;7.90;1.00
573;DHT22;271;51.114;13.780;2023-04-25T02:20:23;7.90;1.00
573;DHT22;271;51.114;13.780;2023-04-25T02:23:11;7.80;1.00
573;DHT22;271;51.114;13.780;2023-04-25T02:25:58;7.80;1.00
573;DHT22;271;51.114;13.780;2023-04-25T02:28:48;7.70;1.00
573;DHT22;271;51.114;13.780;2023-04-25T02:31:35;7.70;1.00
573;DHT22;271;51.114;13.780;2023-04-25T02:34:23;7.80;1.00
573;DHT22;271;51.114;13.780;2023-04-25T02:37:11;7.70;1.00
573;DHT22;271;51.114;13.780;2023-04-25T02:39:59;7.60;1.00
573;DHT22;271;51.114;13.780;2023-04-25T02:42:46;7.60;1.00
573;DHT22;271;51.114;13.780;2023-04-25T02:45:35;7.60;1.00
573;DHT22;271;51.114;13.780;2023-04-25T02:48:24;7.50;1.00
573;DHT22;271;51.114;13.780;2023-04-25T02:51:11;7.50;1.00
573;DHT22;271;51.114;13.780;2023-04-25T02:53:59;7.50;1.00
573;DHT22;271;51.114;13.780;2023-04-25T02:56:47;7.50;1.00
573;DHT22;271;51.114;13.780;2023-04-25T02:59:34;7.50;1.00
573;DHT22;271;51.114;13.780;2023-04-25T03:02:23;7.50;1.00
573;DHT22;271;51.114;13.780;2023-04-25T03:05:11;7.50;1.00
573;DHT22;271;51.114;13.780;2023-04-25T03:07:59;7.50;1.00
573;DHT22;271;51.114;13.780;2023-04-25T03:10:47;7.40;1.00
573;DHT22;271;51.114;13.780;2023-04-25T03:13:36;7.40;1.00
573;DHT22;271;51.114;13.780;2023-04-25T03:16:24;7.40;1.00
573;DHT22;271;51.114;13.780;2023-04-25T03:19:13;7.40;1.00
573;DHT22;271;51.114;13.780;2023-04-25T03:22:02;7.40;1.00
573;DHT22;271;51.114;13.780;2023-04-25T03:24:49;7.50;1.00
573;DHT22;271;51.114;13.780;2023-04-25T03:27:37;7.30;1.00
573;DHT22;271;51.114;13.780;2023-04-25T03:30:25;7.30;1.00
573;DHT22;271;51.114;13.780;2023-04-25T03:33:12;7.20;1.00
573;DHT22;271;51.114;13.780;2023-04-25T03:36:01;7.10;1.00
573;DHT22;271;51.114;13.780;2023-04-25T03:38:49;7.00;1.00
573;DHT22;271;51.114;13.780;2023-04-25T03:41:37;7.00;1.00
573;DHT22;271;51.114;13.780;2023-04-25T03:44:24;7.00;1.00
573;DHT22;271;51.114;13.780;2023-04-25T03:47:12;6.90;1.00
573;DHT22;271;51.114;13.780;2023-04-25T03:50:00;6.80;1.00
573;DHT22;271;51.114;13.780;2023-04-25T03:52:50;6.80;1.00
573;DHT22;271;51.114;13.780;2023-04-25T03:55:38;6.70;1.00
573;DHT22;271;51.114;13.780;2023-04-25T03:58:26;6.60;1.00
573;DHT22;271;51.114;13.780;2023-04-25T04:01:13;6.60;1.00
573;DHT22;271;51.114;13.780;2023-04-25T04:04:01;6.60;1.00
573;DHT22;271;51.114;13.780;2023-04-25T04:06:49;6.60;1.00
573;DHT22;271;51.114;13.780;2023-04-25T04:09:38;6.60;1.00
573;DHT22;271;51.114;13.780;2023-04-25T04:12:26;6.60;1.00
573;DHT22;271;51.114;13.780;2023-04-25T04:15:13;6.60;1.00
573;DHT22;271;51.114;13.780;2023-04-25T04:18:01;6.60;1.00
573;DHT22;271;51.114;13.780;2023-04-25T04:20:49;6.70;1.00
573;DHT22;271;51.114;13.780;2023-04-25T04:23:37;6.60;1.00
573;DHT22;271;51.114;13.780;2023-04-25T04:26:26;6.70;1.00
573;DHT22;271;51.114;13.780;2023-04-25T04:29:13;6.70;1.00
573;DHT22;271;51.114;13.780;2023-04-25T04:32:06;6.70;1.00
573;DHT22;271;51.114;13.780;2023-04-25T04:34:55;6.60;1.00
573;DHT22;271;51.114;13.780;2023-04-25T04:37:43;6.70;1.00
573;DHT22;271;51.114;13.780;2023-04-25T04:40:31;6.70;1.00
573;DHT22;271;51.114;13.780;2023-04-25T04:43:21;6.80;1.00
573;DHT22;271;51.114;13.780;2023-04-25T04:46:09;6.90;1.00
573;DHT22;271;51.114;13.780;2023-04-25T04:48:58;6.90;1.00
573;DHT22;271;51.114;13.780;2023-04-25T04:51:46;7.10;1.00
573;DHT22;271;51.114;13.780;2023-04-25T04:54:35;7.30;1.00
573;DHT22;271;51.114;13.780;2023-04-25T04:57:23;7.40;1.00
573;DHT22;271;51.114;13.780;2023-04-25T05:00:13;7.60;1.00
573;DHT22;271;51.114;13.780;2023-04-25T05:03:01;7.80;1.00
573;DHT22;271;51.114;13.780;2023-04-25T05:05:49;8.00;1.00
573;DHT22;271;51.114;13.780;2023-04-25T05:08:37;8.30;1.00
573;DHT22;271;51.114;13.780;2023-04-25T05:11:24;8.50;1.00
573;DHT22;271;51.114;13.780;2023-04-25T05:14:12;8.60;1.00
573;DHT22;271;51.114;13.780;2023-04-25T05:17:01;8.80;1.00
573;DHT22;271;51.114;13.780;2023-04-25T05:20:03;9.00;1.00
573;DHT22;271;51.114;13.780;2023-04-25T05:22:52;9.20;1.00
573;DHT22;271;51.114;13.780;2023-04-25T05:25:39;9.50;1.00
573;DHT22;271;51.114;13.780;2023-04-25T05:28:27;9.70;1.00
573;DHT22;271;51.114;13.780;2023-04-25T05:31:17;10.20;1.00
573;DHT22;271;51.114;13.780;2023-04-25T05:34:06;10.40;1.00
573;DHT22;271;51.114;13.780;2023-04-25T05:36:57;10.70;1.00
573;DHT22;271;51.114;13.780;2023-04-25T05:39:45;11.10;1.00
573;DHT22;271;51.114;13.780;2023-04-25T05:42:35;11.50;1.00
573;DHT22;271;51.114;13.780;2023-04-25T05:45:23;11.90;1.00
573;DHT22;271;51.114;13.780;2023-04-25T05:48:13;12.30;1.00
573;DHT22;271;51.114;13.780;2023-04-25T05:51:03;13.00;1.00
573;DHT22;271;51.114;13.780;2023-04-25T05:53:50;13.40;1.00
573;DHT22;271;51.114;13.780;2023-04-25T05:56:38;13.80;1.00
573;DHT22;271;51.114;13.780;2023-04-25T05:59:27;14.10;1.00
573;DHT22;271;51.114;13.780;2023-04-25T06:02:15;14.80;1.00
573;DHT22;271;51.114;13.780;2023-04-25T06:05:06;15.30;1.00
573;DHT22;271;51.114;13.780;2023-04-25T06:07:55;15.80;1.00
573;DHT22;271;51.114;13.780;2023-04-25T06:10:43;15.70;1.00
573;DHT22;271;51.114;13.780;2023-04-25T06:13:31;15.90;1.00
573;DHT22;271;51.114;13.780;2023-04-25T06:16:21;15.70;1.00
573;DHT22;271;51.114;13.780;2023-04-25T06:19:12;15.80;1.00
573;DHT22;271;51.114;13.780;2023-04-25T06:21:59;15.70;1.00
573;DHT22;271;51.114;13.780;2023-04-25T06:24:48;15.70;1.00
573;DHT22;271;51.114;13.780;2023-04-25T06:27:39;15.90;1.00
573;DHT22;271;51.114;13.780;2023-04-25T06:30:27;16.10;1.00
573;DHT22;271;51.114;13.780;2023-04-25T06:33:17;16.70;1.00
573;DHT22;271;51.114;13.780;2023-04-25T06:36:07;17.00;1.00
573;DHT22;271;51.114;13.780;2023-04-25T06:39:01;16.80;1.00
573;DHT22;271;51.114;13.780;2023-04-25T06:41:50;16.90;1.00
573;DHT22;271;51.114;13.780;2023-04-25T06:44:39;16.70;1.00
573;DHT22;271;51.114;13.780;2023-04-25T06:47:27;16.70;1.00
573;DHT22;271;51.114;13.780;2023-04-25T06:50:16;17.00;1.00
573;DHT22;271;51.114;13.780;2023-04-25T06:53:03;17.50;1.00
573;DHT22;271;51.114;13.780;2023-04-25T06:55:51;17.40;1.00
573;DHT22;271;51.114;13.780;2023-04-25T06:58:40;18.10;1.00
573;DHT22;271;51.114;13.780;2023-04-25T07:01:28;19.00;1.00
573;DHT22;271;51.114;13.780;2023-04-25T07:04:16;19.10;1.00
573;DHT22;271;51.114;13.780;2023-04-25T07:07:03;19.50;1.00
573;DHT22;271;51.114;13.780;2023-04-25T07:09:51;18.80;1.00
573;DHT22;271;51.114;13.780;2023-04-25T07:12:42;18.30;1.00
573;DHT22;271;51.114;13.780;2023-04-25T07:15:31;18.30;1.00
573;DHT22;271;51.114;13.780;2023-04-25T07:18:18;18.10;1.00
573;DHT22;271;51.114;13.780;2023-04-25T07:21:06;18.40;1.00
573;DHT22;271;51.114;13.780;2023-04-25T07:23:57;18.60;1.00
573;DHT22;271;51.114;13.780;2023-04-25T07:26:45;17.80;1.00
573;DHT22;271;51.114;13.780;2023-04-25T07:29:34;17.20;1.00
573;DHT22;271;51.114;13.780;2023-04-25T07:32:25;17.10;1.00
573;DHT22;271;51.114;13.780;2023-04-25T07:35:13;17.90;1.00
573;DHT22;271;51.114;13.780;2023-04-25T07:38:02;18.50;1.00
573;DHT22;271;51.114;13.780;2023-04-25T07:40:50;18.30;1.00
573;DHT22;271;51.114;13.780;2023-04-25T07:43:37;18.30;1.00
573;DHT22;271;51.114;13.780;2023-04-25T07:46:28;19.10;1.00
573;DHT22;271;51.114;13.780;2023-04-25T07:49:17;20.20;1.00
573;DHT22;271;51.114;13.780;2023-04-25T07:52:05;20.80;1.00
573;DHT22;271;51.114;13.780;2023-04-25T07:54:53;20.20;1.00
573;DHT22;271;51.114;13.780;2023-04-25T07:57:41;18.70;1.00
573;DHT22;271;51.114;13.780;2023-04-25T08:00:29;17.00;1.00
573;DHT22;271;51.114;13.780;2023-04-25T08:03:20;16.20;1.00
573;DHT22;271;51.114;13.780;2023-04-25T08:06:10;16.90;1.00
573;DHT22;271;51.114;13.780;2023-04-25T08:08:57;16.50;1.00
573;DHT22;271;51.114;13.780;2023-04-25T08:11:46;15.50;1.00
573;DHT22;271;51.114;13.780;2023-04-25T08:14:34;14.50;1.00
573;DHT22;271;51.114;13.780;2023-04-25T08:17:23;14.00;1.00
573;DHT22;271;51.114;13.780;2023-04-25T08:20:17;14.00;1.00
573;DHT22;271;51.114;13.780;2023-04-25T08:23:06;13.60;1.00
573;DHT22;271;51.114;13.780;2023-04-25T08:25:53;13.10;1.00
573;DHT22;271;51.114;13.780;2023-04-25T08:28:41;12.80;1.00
573;DHT22;271;51.114;13.780;2023-04-25T08:31:32;12.80;1.00
573;DHT22;271;51.114;13.780;2023-04-25T08:34:20;12.80;1.00
573;DHT22;271;51.114;13.780;2023-04-25T08:37:10;12.70;1.00
573;DHT22;271;51.114;13.780;2023-04-25T08:39:59;14.00;1.00
573;DHT22;271;51.114;13.780;2023-04-25T08:42:49;14.30;1.00
573;DHT22;271;51.114;13.780;2023-04-25T08:45:39;13.60;1.00
573;DHT22;271;51.114;13.780;2023-04-25T08:48:28;12.90;1.00
573;DHT22;271;51.114;13.780;2023-04-25T08:51:21;12.50;1.00
573;DHT22;271;51.114;13.780;2023-04-25T08:54:12;12.20;1.00
573;DHT22;271;51.114;13.780;2023-04-25T08:57:02;12.30;1.00
573;DHT22;271;51.114;13.780;2023-04-25T08:59:52;13.30;1.00
573;DHT22;271;51.114;13.780;2023-04-25T09:02:40;13.70;1.00
573;DHT22;271;51.114;13.780;2023-04-25T09:05:29;13.50;1.00
573;DHT22;271;51.114;13.780;2023-04-25T09:08:17;13.00;1.00
573;DHT22;271;51.114;13.780;2023-04-25T09:11:04;12.60;1.00
573;DHT22;271;51.114;13.780;2023-04-25T09:17:18;12.30;1.00
573;DHT22;271;51.114;13.780;2023-04-25T09:20:07;13.20;1.00
573;DHT22;271;51.114;13.780;2023-04-25T09:23:03;13.70;1.00
573;DHT22;271;51.114;13.780;2023-04-25T09:25:52;13.50;1.00
573;DHT22;271;51.114;13.780;2023-04-25T09:29:05;13.00;1.00
573;DHT22;271;51.114;13.780;2023-04-25T09:32:22;12.40;1.00
573;DHT22;271;51.114;13.780;2023-04-25T09:35:10;12.00;1.00
573;DHT22;271;51.114;13.780;2023-04-25T09:37:58;11.70;1.00
573;DHT22;271;51.114;13.780;2023-04-25T09:40:47;11.40;1.00
573;DHT22;271;51.114;13.780;2023-04-25T09:43:39;11.30;1.00
573;DHT22;271;51.114;13.780;2023-04-25T09:46:34;11.10;1.00
573;DHT22;271;51.114;13.780;2023-04-25T09:49:22;11.10;1.00
573;DHT22;271;51.114;13.780;2023-04-25T09:52:14;10.80;1.00
573;DHT22;271;51.114;13.780;2023-04-25T09:55:03;10.70;1.00
573;DHT22;271;51.114;13.780;2023-04-25T09:57:52;10.80;1.00
573;DHT22;271;51.114;13.780;2023-04-25T10:00:42;11.10;1.00
573;DHT22;271;51.114;13.780;2023-04-25T10:03:32;11.70;1.00
573;DHT22;271;51.114;13.780;2023-04-25T10:06:22;12.20;1.00
573;DHT22;271;51.114;13.780;2023-04-25T10:09:11;12.20;1.00
573;DHT22;271;51.114;13.780;2023-04-25T10:12:05;12.10;1.00
573;DHT22;271;51.114;13.780;2023-04-25T10:14:54;12.10;1.00
573;DHT22;271;51.114;13.780;2023-04-25T10:17:44;12.10;1.00
573;DHT22;271;51.114;13.780;2023-04-25T10:20:48;12.10;1.00
573;DHT22;271;51.114;13.780;2023-04-25T10:23:36;12.10;1.00
573;DHT22;271;51.114;13.780;2023-04-25T10:26:25;12.20;1.00
573;DHT22;271;51.114;13.780;2023-04-25T10:29:12;12.10;1.00
573;DHT22;271;51.114;13.780;2023-04-25T10:32:08;12.20;1.00
573;DHT22;271;51.114;13.780;2023-04-25T10:34:56;11.90;1.00
573;DHT22;271;51.114;13.780;2023-04-25T10:38:03;11.70;1.00
573;DHT22;271;51.114;13.780;2023-04-25T10:41:07;11.70;1.00
573;DHT22;271;51.114;13.780;2023-04-25T10:43:59;11.70;1.00
573;DHT22;271;51.114;13.780;2023-04-25T10:46:48;11.90;1.00
573;DHT22;271;51.114;13.780;2023-04-25T10:49:37;12.00;1.00
573;DHT22;271;51.114;13.780;2023-04-25T10:52:28;11.80;1.00
573;DHT22;271;51.114;13.780;2023-04-25T10:55:17;11.50;1.00
573;DHT22;271;51.114;13.780;2023-04-25T10:58:05;11.20;1.00
573;DHT22;271;51.114;13.780;2023-04-25T11:00:52;10.90;1.00
573;DHT22;271;51.114;13.780;2023-04-25T11:03:41;10.80;1.00
573;DHT22;271;51.114;13.780;2023-04-25T11:06:37;10.60;1.00
573;DHT22;271;51.114;13.780;2023-04-25T11:09:45;10.40;1.00
573;DHT22;271;51.114;13.780;2023-04-25T11:12:37;10.40;1.00
573;DHT22;271;51.114;13.780;2023-04-25T11:15:25;10.50;1.00
573;DHT22;271;51.114;13.780;2023-04-25T11:18:16;10.50;1.00
573;DHT22;271;51.114;13.780;2023-04-25T11:21:04;10.20;1.00
573;DHT22;271;51.114;13.780;2023-04-25T11:23:53;10.10;1.00
573;DHT22;271;51.114;13.780;2023-04-25T11:26:41;10.10;1.00
573;DHT22;271;51.114;13.780;2023-04-25T11:29:33;10.00;1.00
573;DHT22;271;51.114;13.780;2023-04-25T11:32:21;10.20;1.00
573;DHT22;271;51.114;13.780;2023-04-25T11:35:10;10.30;1.00
573;DHT22;271;51.114;13.780;2023-04-25T11:37:57;10.40;1.00
573;DHT22;271;51.114;13.780;2023-04-25T11:40:50;10.40;1.00
573;DHT22;271;51.114;13.780;2023-04-25T11:43:38;10.40;1.00
573;DHT22;271;51.114;13.780;2023-04-25T11:46:27;10.50;1.00
573;DHT22;271;51.114;13.780;2023-04-25T11:49:15;10.40;1.00
573;DHT22;271;51.114;13.780;2023-04-25T11:52:06;10.50;1.00
573;DHT22;271;51.114;13.780;2023-04-25T11:54:56;10.60;1.00
573;DHT22;271;51.114;13.780;2023-04-25T11:57:47;10.90;1.00
573;DHT22;271;51.114;13.780;2023-04-25T12:00:35;11.40;1.00
573;DHT22;271;51.114;13.780;2023-04-25T12:03:25;11.70;1.00
573;DHT22;271;51.114;13.780;2023-04-25T12:06:17;12.00;1.00
573;DHT22;271;51.114;13.780;2023-04-25T12:09:07;12.00;1.00
573;DHT22;271;51.114;13.780;2023-04-25T12:11:57;11.90;1.00
573;DHT22;271;51.114;13.780;2023-04-25T12:14:47;11.60;1.00
573;DHT22;271;51.114;13.780;2023-04-25T12:17:35;11.40;1.00
573;DHT22;271;51.114;13.780;2023-04-25T12:20:25;11.30;1.00
573;DHT22;271;51.114;13.780;2023-04-25T12:23:13;11.00;1.00
573;DHT22;271;51.114;13.780;2023-04-25T12:26:01;11.10;1.00
573;DHT22;271;51.114;13.780;2023-04-25T12:28:49;10.90;1.00
573;DHT22;271;51.114;13.780;2023-04-25T12:31:37;10.90;1.00
573;DHT22;271;51.114;13.780;2023-04-25T12:34:24;10.90;1.00
573;DHT22;271;51.114;13.780;2023-04-25T12:37:14;10.70;1.00
573;DHT22;271;51.114;13.780;2023-04-25T12:40:02;10.80;1.00
573;DHT22;271;51.114;13.780;2023-04-25T12:42:50;11.00;1.00
573;DHT22;271;51.114;13.780;2023-04-25T12:45:38;11.20;1.00
573;DHT22;271;51.114;13.780;2023-04-25T12:48:26;11.50;1.00
573;DHT22;271;51.114;13.780;2023-04-25T12:51:13;11.60;1.00
573;DHT22;271;51.114;13.780;2023-04-25T12:54:04;11.80;1.00
573;DHT22;271;51.114;13.780;2023-04-25T12:56:52;11.70;1.00
573;DHT22;271;51.114;13.780;2023-04-25T12:59:41;11.70;1.00
573;DHT22;271;51.114;13.780;2023-04-25T13:02:28;11.60;1.00
573;DHT22;271;51.114;13.780;2023-04-25T13:05:16;11.40;1.00
573;DHT22;271;51.114;13.780;2023-04-25T13:08:05;11.20;1.00
573;DHT22;271;51.114;13.780;2023-04-25T13:10:54;11.10;1.00
573;DHT22;271;51.114;13.780;2023-04-25T13:13:42;11.00;1.00
573;DHT22;271;51.114;13.780;2023-04-25T13:16:30;10.90;1.00
573;DHT22;271;51.114;13.780;2023-04-25T13:19:18;10.80;1.00
573;DHT22;271;51.114;13.780;2023-04-25T13:22:09;10.70;1.00
573;DHT22;271;51.114;13.780;2023-04-25T13:24:57;10.60;1.00
573;DHT22;271;51.114;13.780;2023-04-25T13:27:47;10.50;1.00
573;DHT22;271;51.114;13.780;2023-04-25T13:30:35;10.40;1.00
573;DHT22;271;51.114;13.780;2023-04-25T13:33:26;10.40;1.00
573;DHT22;271;51.114;13.780;2023-04-25T13:36:14;10.40;1.00
573;DHT22;271;51.114;13.780;2023-04-25T13:39:04;10.40;1.00
573;DHT22;271;51.114;13.780;2023-04-25T13:41:52;10.30;1.00
573;DHT22;271;51.114;13.780;2023-04-25T13:44:41;10.10;1.00
573;DHT22;271;51.114;13.780;2023-04-25T13:47:30;10.00;1.00
573;DHT22;271;51.114;13.780;2023-04-25T13:50:20;10.10;1.00
573;DHT22;271;51.114;13.780;2023-04-25T13:53:08;10.10;1.00
573;DHT22;271;51.114;13.780;2023-04-25T13:55:56;10.10;1.00
573;DHT22;271;51.114;13.780;2023-04-25T13:58:43;10.10;1.00
573;DHT22;271;51.114;13.780;2023-04-25T14:01:36;10.10;1.00
573;DHT22;271;51.114;13.780;2023-04-25T14:04:24;10.20;1.00
573;DHT22;271;51.114;13.780;2023-04-25T14:07:13;10.20;1.00
573;DHT22;271;51.114;13.780;2023-04-25T14:10:02;10.20;1.00
573;DHT22;271;51.114;13.780;2023-04-25T14:12:51;10.40;1.00
573;DHT22;271;51.114;13.780;2023-04-25T14:15:38;10.50;1.00
573;DHT22;271;51.114;13.780;2023-04-25T14:18:31;10.70;1.00
573;DHT22;271;51.114;13.780;2023-04-25T14:21:18;10.80;1.00
573;DHT22;271;51.114;13.780;2023-04-25T14:24:07;10.70;1.00
573;DHT22;271;51.114;13.780;2023-04-25T14:26:55;10.60;1.00
573;DHT22;271;51.114;13.780;2023-04-25T14:29:43;10.60;1.00
573;DHT22;271;51.114;13.780;2023-04-25T14:32:31;10.70;1.00
573;DHT22;271;51.114;13.780;2023-04-25T14:35:23;10.90;1.00
573;DHT22;271;51.114;13.780;2023-04-25T14:38:11;11.10;1.00
573;DHT22;271;51.114;13.780;2023-04-25T14:41:24;11.20;1.00
573;DHT22;271;51.114;13.780;2023-04-25T14:44:24;11.40;1.00
573;DHT22;271;51.114;13.780;2023-04-25T14:47:11;11.60;1.00
573;DHT22;271;51.114;13.780;2023-04-25T14:50:02;11.70;1.00
573;DHT22;271;51.114;13.780;2023-04-25T14:52:52;11.60;1.00
573;DHT22;271;51.114;13.780;2023-04-25T14:55:40;11.40;1.00
573;DHT22;271;51.114;13.780;2023-04-25T14:58:28;11.30;1.00
573;DHT22;271;51.114;13.780;2023-04-25T15:01:16;11.10;1.00
573;DHT22;271;51.114;13.780;2023-04-25T15:04:06;11.20;1.00
573;DHT22;271;51.114;13.780;2023-04-25T15:06:54;11.20;1.00
573;DHT22;271;51.114;13.780;2023-04-25T15:09:43;11.20;1.00
573;DHT22;271;51.114;13.780;2023-04-25T15:12:34;11.10;1.00
573;DHT22;271;51.114;13.780;2023-04-25T15:15:22;10.90;1.00
573;DHT22;271;51.114;13.780;2023-04-25T15:18:10;10.70;1.00
573;DHT22;271;51.114;13.780;2023-04-25T15:20:57;10.70;1.00
573;DHT22;271;51.114;13.780;2023-04-25T15:23:48;10.80;1.00
573;DHT22;271;51.114;13.780;2023-04-25T15:26:37;10.90;1.00
573;DHT22;271;51.114;13.780;2023-04-25T15:29:25;10.90;1.00
573;DHT22;271;51.114;13.780;2023-04-25T15:32:13;10.70;1.00
573;DHT22;271;51.114;13.780;2023-04-25T15:35:05;10.50;1.00
573;DHT22;271;51.114;13.780;2023-04-25T15:37:52;10.50;1.00
573;DHT22;271;51.114;13.780;2023-04-25T15:40:43;10.40;1.00
573;DHT22;271;51.114;13.780;2023-04-25T15:43:32;10.30;1.00
573;DHT22;271;51.114;13.780;2023-04-25T15:46:23;10.30;1.00
573;DHT22;271;51.114;13.780;2023-04-25T15:49:11;10.20;1.00
573;DHT22;271;51.114;13.780;2023-04-25T15:51:58;10.10;1.00
573;DHT22;271;51.114;13.780;2023-04-25T15:54:46;10.10;1.00
573;DHT22;271;51.114;13.780;2023-04-25T15:57:36;10.10;1.00
573;DHT22;271;51.114;13.780;2023-04-25T16:00:25;10.00;1.00
573;DHT22;271;51.114;13.780;2023-04-25T16:03:13;10.00;1.00
573;DHT22;271;51.114;13.780;2023-04-25T16:06:01;10.00;1.00
573;DHT22;271;51.114;13.780;2023-04-25T16:08:53;10.00;1.00
573;DHT22;271;51.114;13.780;2023-04-25T16:11:41;10.00;1.00
573;DHT22;271;51.114;13.780;2023-04-25T16:14:32;10.00;1.00
573;DHT22;271;51.114;13.780;2023-04-25T16:17:21;10.00;1.00
573;DHT22;271;51.114;13.780;2023-04-25T16:20:10;10.00;1.00
573;DHT22;271;51.114;13.780;2023-04-25T16:22:58;10.00;1.00
573;DHT22;271;51.114;13.780;2023-04-25T16:25:46;10.10;1.00
573;DHT22;271;51.114;13.780;2023-04-25T16:28:35;10.20;1.00
573;DHT22;271;51.114;13.780;2023-04-25T16:31:23;10.10;1.00
573;DHT22;271;51.114;13.780;2023-04-25T16:34:13;10.10;1.00
573;DHT22;271;51.114;13.780;2023-04-25T16:37:00;10.20;1.00
573;DHT22;271;51.114;13.780;2023-04-25T16:39:48;10.20;1.00
573;DHT22;271;51.114;13.780;2023-04-25T16:42:39;10.30;1.00
573;DHT22;271;51.114;13.780;2023-04-25T16:45:27;10.20;1.00
573;DHT22;271;51.114;13.780;2023-04-25T16:48:17;10.20;1.00
573;DHT22;271;51.114;13.780;2023-04-25T16:51:07;10.10;1.00
573;DHT22;271;51.114;13.780;2023-04-25T16:53:55;10.00;1.00
573;DHT22;271;51.114;13.780;2023-04-25T16:56:43;10.00;1.00
573;DHT22;271;51.114;13.780;2023-04-25T16:59:33;9.90;1.00
573;DHT22;271;51.114;13.780;2023-04-25T17:02:21;9.80;1.00
573;DHT22;271;51.114;13.780;2023-04-25T17:05:11;9.70;1.00
573;DHT22;271;51.114;13.780;2023-04-25T17:08:01;9.60;1.00
573;DHT22;271;51.114;13.780;2023-04-25T17:10:49;9.60;1.00
573;DHT22;271;51.114;13.780;2023-04-25T17:13:37;9.60;1.00
573;DHT22;271;51.114;13.780;2023-04-25T17:16:33;9.60;1.00
573;DHT22;271;51.114;13.780;2023-04-25T17:19:21;9.50;1.00
573;DHT22;271;51.114;13.780;2023-04-25T17:22:09;9.50;1.00
573;DHT22;271;51.114;13.780;2023-04-25T17:24:58;9.50;1.00
573;DHT22;271;51.114;13.780;2023-04-25T17:27:46;9.50;1.00
573;DHT22;271;51.114;13.780;2023-04-25T17:30:33;9.50;1.00
573;DHT22;271;51.114;13.780;2023-04-25T17:33:21;9.50;1.00
573;DHT22;271;51.114;13.780;2023-04-25T17:36:12;9.60;1.00
573;DHT22;271;51.114;13.780;2023-04-25T17:39:00;9.60;1.00
573;DHT22;271;51.114;13.780;2023-04-25T17:41:49;9.50;1.00
573;DHT22;271;51.114;13.780;2023-04-25T17:44:37;9.40;1.00
573;DHT22;271;51.114;13.780;2023-04-25T17:47:25;9.30;1.00
573;DHT22;271;51.114;13.780;2023-04-25T17:50:15;9.20;1.00
573;DHT22;271;51.114;13.780;2023-04-25T17:53:03;8.90;1.00
573;DHT22;271;51.114;13.780;2023-04-25T17:55:51;8.90;1.00
573;DHT22;271;51.114;13.780;2023-04-25T17:58:40;8.80;1.00
573;DHT22;271;51.114;13.780;2023-04-25T18:01:29;8.70;1.00
573;DHT22;271;51.114;13.780;2023-04-25T18:04:16;8.70;1.00
573;DHT22;271;51.114;13.780;2023-04-25T18:07:04;8.70;1.00
573;DHT22;271;51.114;13.780;2023-04-25T18:09:52;8.60;1.00
573;DHT22;271;51.114;13.780;2023-04-25T18:12:40;8.60;1.00
573;DHT22;271;51.114;13.780;2023-04-25T18:15:29;8.60;1.00
573;DHT22;271;51.114;13.780;2023-04-25T18:18:17;8.60;1.00
573;DHT22;271;51.114;13.780;2023-04-25T18:21:10;8.60;1.00
573;DHT22;271;51.114;13.780;2023-04-25T18:23:58;8.60;1.00
573;DHT22;271;51.114;13.780;2023-04-25T18:26:47;8.50;1.00
573;DHT22;271;51.114;13.780;2023-04-25T18:29:34;8.50;1.00
573;DHT22;271;51.114;13.780;2023-04-25T18:32:25;8.50;1.00
573;DHT22;271;51.114;13.780;2023-04-25T18:35:13;8.50;1.00
573;DHT22;271;51.114;13.780;2023-04-25T18:38:01;8.50;1.00
573;DHT22;271;51.114;13.780;2023-04-25T18:40:49;8.50;1.00
573;DHT22;271;51.114;13.780;2023-04-25T18:43:37;8.60;1.00
573;DHT22;271;51.114;13.780;2023-04-25T18:46:24;8.60;1.00
573;DHT22;271;51.114;13.780;2023-04-25T18:49:13;8.60;1.00
573;DHT22;271;51.114;13.780;2023-04-25T18:52:01;8.60;1.00
573;DHT22;271;51.114;13.780;2023-04-25T18:54:49;8.50;1.00
573;DHT22;271;51.114;13.780;2023-04-25T18:57:37;8.40;1.00
573;DHT22;271;51.114;13.780;2023-04-25T19:00:24;8.40;1.00
573;DHT22;271;51.114;13.780;2023-04-25T19:03:12;8.20;1.00
573;DHT22;271;51.114;13.780;2023-04-25T19:06:01;8.10;1.00
573;DHT22;271;51.114;13.780;2023-04-25T19:08:49;8.10;1.00
573;DHT22;271;51.114;13.780;2023-04-25T19:11:38;7.90;1.00